createdAt,value
2024-04-24T00:01:18.288Z,72.01
2024-04-24T00:03:44.953Z,72.04
2024-04-24T00:06:11.553Z,72.45
2024-04-24T00:08:38.105Z,72.67
2024-04-24T00:11:04.698Z,73.13
2024-04-24T00:13:31.315Z,73.46
2024-04-24T00:15:57.844Z,73.88
2024-04-24T00:18:24.839Z,74.28
2024-04-24T00:20:55.696Z,74.48
2024-04-24T00:23:22.255Z,74.83
2024-04-24T00:25:49.399Z,75.50
2024-04-24T00:28:15.929Z,75.58
2024-04-24T00:30:42.497Z,75.41
2024-04-24T00:33:11.115Z,75.28
2024-04-24T00:35:37.875Z,76.47
2024-04-24T00:38:04.579Z,76.42
2024-04-24T00:40:31.181Z,77.48
2024-04-24T00:42:57.710Z,76.71
2024-04-24T00:45:24.261Z,76.75
2024-04-24T00:47:52.243Z,77.22
2024-04-24T00:50:19.658Z,77.67
2024-04-24T00:52:46.481Z,77.59
2024-04-24T00:55:13.446Z,78.31
2024-04-24T00:57:41.776Z,79.63
2024-04-24T01:00:08.668Z,79.18
2024-04-24T01:02:35.438Z,78.57
2024-04-24T01:05:02.156Z,79.11
2024-04-24T01:07:28.792Z,78.98
2024-04-24T01:09:55.294Z,78.97
2024-04-24T01:12:21.858Z,79.13
2024-04-24T01:14:48.397Z,78.57
2024-04-24T01:17:18.978Z,79.25
2024-04-24T01:19:47.695Z,79.39
2024-04-24T01:22:41.185Z,79.23
2024-04-24T01:25:10.545Z,79.12
2024-04-24T01:27:37.245Z,80.03
2024-04-24T01:30:04.388Z,79.75
2024-04-24T01:32:31.061Z,79.17
2024-04-24T01:34:57.781Z,79.62
2024-04-24T01:37:24.333Z,79.38
2024-04-24T01:39:50.875Z,79.75
2024-04-24T01:42:17.407Z,78.87
2024-04-24T01:44:43.913Z,78.81
2024-04-24T01:47:10.535Z,78.88
2024-04-24T01:49:37.117Z,78.72
2024-04-24T01:52:03.750Z,78.56
2024-04-24T01:54:30.257Z,78.24
2024-04-24T01:56:56.763Z,77.68
2024-04-24T01:59:23.332Z,78.43
2024-04-24T02:01:50.552Z,78.61
2024-04-24T02:04:17.171Z,78.28
2024-04-24T02:06:43.692Z,79.28
2024-04-24T02:09:10.224Z,79.14
2024-04-24T02:11:36.878Z,79.39
2024-04-24T02:14:03.450Z,80.03
2024-04-24T02:16:30.076Z,80.78
2024-04-24T02:18:56.689Z,80.91
2024-04-24T02:21:23.298Z,80.92
2024-04-24T02:23:49.839Z,80.00
2024-04-24T02:26:16.400Z,80.50
2024-04-24T02:28:42.924Z,79.80
2024-04-24T02:31:10.569Z,79.55
2024-04-24T02:33:38.739Z,79.28
2024-04-24T02:36:05.403Z,80.55
2024-04-24T02:38:31.931Z,79.99
2024-04-24T02:40:58.517Z,80.74
2024-04-24T02:43:25.076Z,80.75
2024-04-24T02:45:51.593Z,80.85
2024-04-24T02:48:18.214Z,80.91
2024-04-24T02:50:44.862Z,80.88
2024-04-24T02:53:11.513Z,81.86
2024-04-24T02:55:38.045Z,82.07
2024-04-24T02:58:04.696Z,81.89
2024-04-24T03:00:31.257Z,81.98
2024-04-24T03:02:58.029Z,82.37
2024-04-24T03:05:24.792Z,82.20
2024-04-24T03:07:51.353Z,81.46
2024-04-24T03:10:17.927Z,81.39
2024-04-24T03:12:44.443Z,80.52
2024-04-24T03:15:11.002Z,79.86
2024-04-24T03:17:39.924Z,80.50
2024-04-24T03:20:07.140Z,80.83
2024-04-24T03:22:33.701Z,80.26
2024-04-24T03:25:00.251Z,80.20
2024-04-24T03:27:26.861Z,81.17
2024-04-24T03:29:53.357Z,81.08
2024-04-24T03:32:20.139Z,80.96
2024-04-24T03:34:46.734Z,81.18
2024-04-24T03:37:13.312Z,81.59
2024-04-24T03:39:39.839Z,80.55
2024-04-24T03:42:06.678Z,81.99
2024-04-24T03:44:33.223Z,81.84
2024-04-24T03:46:59.941Z,81.71
2024-04-24T03:49:26.499Z,82.28
2024-04-24T03:51:53.268Z,82.29
2024-04-24T03:54:19.790Z,82.25
2024-04-24T03:56:46.317Z,82.95
2024-04-24T03:59:12.857Z,83.41
2024-04-24T04:01:39.368Z,82.57
2024-04-24T04:04:05.968Z,81.94
2024-04-24T04:06:32.640Z,82.21
2024-04-24T04:08:59.174Z,81.89
2024-04-24T04:11:25.816Z,82.36
2024-04-24T04:13:55.013Z,81.98
2024-04-24T04:16:21.602Z,81.99
2024-04-24T04:18:48.181Z,82.33
2024-04-24T04:21:14.739Z,82.54
2024-04-24T04:23:41.277Z,82.80
2024-04-24T04:26:07.958Z,83.14
2024-04-24T04:28:34.550Z,82.82
2024-04-24T04:31:01.068Z,82.66
2024-04-24T04:33:27.674Z,82.73
2024-04-24T04:35:54.313Z,83.55
2024-04-24T04:38:20.998Z,82.21
2024-04-24T04:40:48.331Z,82.10
2024-04-24T04:43:14.855Z,82.60
2024-04-24T04:45:41.360Z,83.02
2024-04-24T04:48:08.696Z,83.55
2024-04-24T04:50:35.443Z,83.85
2024-04-24T04:53:02.196Z,83.62
2024-04-24T04:55:28.755Z,82.89
2024-04-24T04:57:55.396Z,82.62
2024-04-24T05:00:21.956Z,81.74
2024-04-24T05:02:48.618Z,82.86
2024-04-24T05:05:15.169Z,82.80
2024-04-24T05:07:41.758Z,83.43
2024-04-24T05:10:08.474Z,83.99
2024-04-24T05:12:35.017Z,83.46
2024-04-24T05:15:01.637Z,83.12
2024-04-24T05:17:28.254Z,83.93
2024-04-24T05:19:54.896Z,83.39
2024-04-24T05:22:22.262Z,84.58
2024-04-24T05:24:48.786Z,82.73
2024-04-24T05:27:33.789Z,81.98
2024-04-24T05:30:00.363Z,82.32
2024-04-24T05:32:27.067Z,82.29
2024-04-24T05:34:53.693Z,81.79
2024-04-24T05:37:20.290Z,80.77
2024-04-24T05:39:46.842Z,81.34
2024-04-24T05:42:13.407Z,81.56
2024-04-24T05:44:39.946Z,81.42
2024-04-24T05:47:06.515Z,80.82
2024-04-24T05:49:33.179Z,80.50
2024-04-24T05:51:59.976Z,80.68
2024-04-24T05:54:26.514Z,80.16
2024-04-24T05:56:53.025Z,79.70
2024-04-24T05:59:19.757Z,79.89
2024-04-24T06:01:46.283Z,79.39
2024-04-24T06:04:12.932Z,79.01
2024-04-24T06:06:39.537Z,78.48
2024-04-24T06:09:06.096Z,78.91
2024-04-24T06:11:32.737Z,78.49
2024-04-24T06:13:59.439Z,77.83
2024-04-24T06:16:25.952Z,76.90
2024-04-24T06:18:52.548Z,77.24
2024-04-24T06:21:19.124Z,77.39
2024-04-24T06:23:45.627Z,77.57
2024-04-24T06:26:12.198Z,76.73
2024-04-24T06:28:38.759Z,76.27
2024-04-24T06:31:05.263Z,75.35
2024-04-24T06:33:32.008Z,74.65
2024-04-24T06:35:58.576Z,74.51
2024-04-24T06:38:25.180Z,75.33
2024-04-24T06:40:51.811Z,75.36
2024-04-24T06:43:20.774Z,74.31
2024-04-24T06:45:47.304Z,74.72
2024-04-24T06:48:13.964Z,74.42
2024-04-24T06:50:41.991Z,73.83
2024-04-24T06:53:08.573Z,73.74
2024-04-24T06:55:37.713Z,73.82
2024-04-24T06:58:04.719Z,73.53
2024-04-24T07:00:31.645Z,73.95
2024-04-24T07:02:58.321Z,74.00
2024-04-24T07:05:24.946Z,73.68
2024-04-24T07:07:51.549Z,73.46
2024-04-24T07:10:18.088Z,73.77
2024-04-24T07:12:46.738Z,74.04
2024-04-24T07:15:15.156Z,74.00
2024-04-24T07:17:42.873Z,73.89
2024-04-24T07:20:09.721Z,74.01
2024-04-24T07:22:36.256Z,74.03
2024-04-24T07:25:02.786Z,73.65
2024-04-24T07:27:30.845Z,73.71
2024-04-24T07:29:59.214Z,73.70
2024-04-24T07:32:25.997Z,73.42
2024-04-24T07:34:52.598Z,72.33
2024-04-24T07:37:19.424Z,73.15
2024-04-24T07:39:45.944Z,71.85
2024-04-24T07:42:12.549Z,70.62
2024-04-24T07:44:44.075Z,69.71
2024-04-24T07:47:11.368Z,69.40
2024-04-24T07:49:37.990Z,69.93
2024-04-24T07:52:05.237Z,70.08
2024-04-24T07:54:31.909Z,70.79
2024-04-24T07:56:58.465Z,70.95
2024-04-24T07:59:25.090Z,70.46
2024-04-24T08:01:51.750Z,70.47
2024-04-24T08:04:18.488Z,69.94
2024-04-24T08:06:45.128Z,69.09
2024-04-24T08:09:12.081Z,68.69
2024-04-24T08:11:38.821Z,68.24
2024-04-24T08:14:07.195Z,67.48
2024-04-24T08:16:34.562Z,65.92
2024-04-24T08:19:01.268Z,65.10
2024-04-24T08:21:27.788Z,64.26
2024-04-24T08:23:55.220Z,63.73
2024-04-24T08:26:22.878Z,62.93
2024-04-24T08:28:49.759Z,62.37
2024-04-24T08:31:16.273Z,60.04
2024-04-24T08:33:42.961Z,58.89
2024-04-24T08:36:13.526Z,59.28
2024-04-24T08:38:41.074Z,58.22
2024-04-24T08:41:12.320Z,58.43
2024-04-24T08:43:40.851Z,58.08
2024-04-24T08:46:09.362Z,57.60
2024-04-24T08:48:36.641Z,57.52
2024-04-24T08:51:03.700Z,56.59
2024-04-24T08:53:32.892Z,56.24
2024-04-24T08:56:00.516Z,53.56
2024-04-24T08:58:29.120Z,53.74
2024-04-24T09:00:58.837Z,55.17
2024-04-24T09:03:32.427Z,54.48
2024-04-24T09:06:02.344Z,52.91
2024-04-24T09:08:32.428Z,53.11
2024-04-24T09:10:58.984Z,53.65
2024-04-24T09:13:25.798Z,53.32
2024-04-24T09:15:54.637Z,52.60
2024-04-24T09:18:21.237Z,53.14
2024-04-24T09:20:49.159Z,53.46
2024-04-24T09:23:18.661Z,53.33
2024-04-24T09:25:45.119Z,51.29
2024-04-24T09:28:12.134Z,51.56
2024-04-24T09:30:39.110Z,51.55
2024-04-24T09:33:06.449Z,52.51
2024-04-24T09:35:33.155Z,51.10
2024-04-24T09:37:59.822Z,50.76
2024-04-24T09:40:28.309Z,51.39
2024-04-24T09:42:55.386Z,51.27
2024-04-24T09:45:22.730Z,51.60
2024-04-24T09:47:49.630Z,51.33
2024-04-24T09:50:16.377Z,52.12
2024-04-24T09:52:48.166Z,51.48
2024-04-24T09:55:15.397Z,50.88
2024-04-24T09:57:45.197Z,50.99
2024-04-24T10:00:13.777Z,51.53
2024-04-24T10:02:42.646Z,51.09
2024-04-24T10:05:16.221Z,49.61
2024-04-24T10:07:52.674Z,48.10
2024-04-24T10:10:20.069Z,47.55
2024-04-24T10:12:48.782Z,47.72
2024-04-24T10:15:23.663Z,46.92
2024-04-24T10:17:53.030Z,44.90
2024-04-24T10:20:25.695Z,44.43
2024-04-24T10:22:54.809Z,43.88
2024-04-24T10:25:22.763Z,41.69
2024-04-24T10:27:51.237Z,42.51
2024-04-24T10:30:18.633Z,45.42
2024-04-24T10:32:45.327Z,45.74
2024-04-24T10:35:12.677Z,47.63
2024-04-24T10:37:39.254Z,48.58
2024-04-24T10:40:12.492Z,51.98
2024-04-24T10:42:41.428Z,55.61
2024-04-24T10:45:09.097Z,60.08
2024-04-24T10:47:37.865Z,66.45
2024-04-24T10:50:14.350Z,72.82
2024-04-24T10:52:48.496Z,74.33
2024-04-24T10:55:18.988Z,76.72
2024-04-24T10:57:50.198Z,79.54
2024-04-24T11:00:18.844Z,81.22
2024-04-24T11:02:49.992Z,83.54
2024-04-24T11:05:18.885Z,82.59
2024-04-24T11:07:56.423Z,83.52
2024-04-24T11:10:24.530Z,79.47
2024-04-24T11:12:51.044Z,78.49
2024-04-24T11:15:22.747Z,78.39
2024-04-24T11:17:51.895Z,80.73
2024-04-24T11:20:19.807Z,76.12
2024-04-24T11:22:46.868Z,73.40
2024-04-24T11:25:14.426Z,71.12
2024-04-24T11:27:42.088Z,70.48
2024-04-24T11:30:13.891Z,72.66
2024-04-24T11:32:42.515Z,65.82
2024-04-24T11:35:10.662Z,70.40
2024-04-24T11:37:40.400Z,71.85
2024-04-24T11:40:10.740Z,69.36
2024-04-24T11:42:44.084Z,69.05
2024-04-24T11:45:10.730Z,66.19
2024-04-24T11:47:37.551Z,67.23
2024-04-24T11:50:04.893Z,68.12
2024-04-24T11:52:38.397Z,66.00
2024-04-24T11:55:06.263Z,66.31
2024-04-24T11:57:39.477Z,64.79
2024-04-24T12:00:07.787Z,64.27
2024-04-24T12:02:35.792Z,63.77
2024-04-24T12:05:06.737Z,63.92
2024-04-24T12:07:43.311Z,62.46
2024-04-24T12:10:09.920Z,59.79
2024-04-24T12:12:36.449Z,56.45
2024-04-24T12:15:03.315Z,56.81
2024-04-24T12:17:29.916Z,55.56
2024-04-24T12:19:56.653Z,52.97
2024-04-24T12:22:23.270Z,52.97
2024-04-24T12:24:49.862Z,53.10
2024-04-24T12:27:17.175Z,53.77
2024-04-24T12:29:45.108Z,52.97
2024-04-24T12:32:11.718Z,52.58
2024-04-24T12:34:38.336Z,52.44
2024-04-24T12:37:05.108Z,53.80
2024-04-24T12:39:31.640Z,54.68
2024-04-24T12:41:58.167Z,53.11
2024-04-24T12:44:24.823Z,53.49
2024-04-24T12:46:51.369Z,53.51
2024-04-24T12:49:17.967Z,54.70
2024-04-24T12:51:44.905Z,54.51
2024-04-24T12:54:11.469Z,55.46
2024-04-24T12:56:38.049Z,59.50
2024-04-24T12:59:07.191Z,61.92
2024-04-24T13:01:33.773Z,64.09
2024-04-24T13:04:01.262Z,66.31
2024-04-24T13:06:28.161Z,68.76
2024-04-24T13:08:56.975Z,67.68
2024-04-24T13:11:23.652Z,67.34
2024-04-24T13:13:50.232Z,66.15
2024-04-24T13:16:16.757Z,65.81
2024-04-24T13:18:44.034Z,62.20
2024-04-24T13:21:10.931Z,61.24
2024-04-24T13:23:37.468Z,59.64
2024-04-24T13:26:04.280Z,58.18
2024-04-24T13:28:33.574Z,57.40
2024-04-24T13:31:03.317Z,57.29
2024-04-24T13:33:31.449Z,57.76
2024-04-24T13:35:58.026Z,56.36
2024-04-24T13:38:24.668Z,57.15
2024-04-24T13:40:51.206Z,57.56
2024-04-24T13:43:17.749Z,57.03
2024-04-24T13:45:44.524Z,57.40
2024-04-24T13:48:11.201Z,57.03
2024-04-24T13:50:38.050Z,57.33
2024-04-24T13:53:04.828Z,58.03
2024-04-24T13:55:31.380Z,57.13
2024-04-24T13:57:58.016Z,57.85
2024-04-24T14:00:26.301Z,56.78
2024-04-24T14:02:53.937Z,56.34
2024-04-24T14:05:23.472Z,57.15
2024-04-24T14:07:50.322Z,56.88
2024-04-24T14:10:16.911Z,57.56
2024-04-24T14:12:43.454Z,57.38
2024-04-24T14:15:10.087Z,57.71
2024-04-24T14:17:38.944Z,57.96
2024-04-24T14:20:06.218Z,58.66
2024-04-24T14:22:32.813Z,58.12
2024-04-24T14:24:59.393Z,59.38
2024-04-24T14:27:26.480Z,63.90
2024-04-24T14:29:53.029Z,66.82
2024-04-24T14:32:19.886Z,67.18
2024-04-24T14:34:46.929Z,66.74
2024-04-24T14:37:13.477Z,64.32
2024-04-24T14:39:40.083Z,62.98
2024-04-24T14:42:07.027Z,63.17
2024-04-24T14:44:33.680Z,63.56
2024-04-24T14:47:00.282Z,63.65
2024-04-24T14:49:28.639Z,63.29
2024-04-24T14:51:55.215Z,63.85
2024-04-24T14:54:21.749Z,64.30
2024-04-24T14:56:48.334Z,64.14
2024-04-24T14:59:15.151Z,65.32
2024-04-24T15:01:41.840Z,65.41
2024-04-24T15:04:08.798Z,65.93
2024-04-24T15:06:36.843Z,64.45
2024-04-24T15:09:03.437Z,62.23
2024-04-24T15:11:30.294Z,60.50
2024-04-24T15:13:56.877Z,60.12
2024-04-24T15:16:23.399Z,59.00
2024-04-24T15:18:49.963Z,58.69
2024-04-24T15:21:16.523Z,59.04
2024-04-24T15:23:46.280Z,59.50
2024-04-24T15:26:14.655Z,59.25
2024-04-24T15:28:41.212Z,59.90
2024-04-24T15:31:10.623Z,59.62
2024-04-24T15:33:40.266Z,60.13
2024-04-24T15:36:08.549Z,60.49
2024-04-24T15:38:35.186Z,60.39
2024-04-24T15:41:01.872Z,60.38
2024-04-24T15:43:28.415Z,59.77
2024-04-24T15:45:55.938Z,59.21
2024-04-24T15:48:22.556Z,57.91
2024-04-24T15:50:49.381Z,56.54
2024-04-24T15:53:16.344Z,55.92
2024-04-24T15:55:43.322Z,55.83
2024-04-24T15:58:10.232Z,56.11
2024-04-24T16:00:37.186Z,56.70
2024-04-24T16:03:04.872Z,57.04
2024-04-24T16:05:32.260Z,56.99
2024-04-24T16:07:58.947Z,57.31
2024-04-24T16:10:25.485Z,58.03
2024-04-24T16:12:51.987Z,57.52
2024-04-24T16:15:19.258Z,56.55
2024-04-24T16:17:46.008Z,54.06
2024-04-24T16:20:14.728Z,51.59
2024-04-24T16:22:41.749Z,51.19
2024-04-24T16:25:08.546Z,51.48
2024-04-24T16:27:35.141Z,52.17
2024-04-24T16:30:01.751Z,50.29
2024-04-24T16:32:28.398Z,50.49
2024-04-24T16:34:55.033Z,52.49
2024-04-24T16:37:21.576Z,53.17
2024-04-24T16:39:48.921Z,53.73
2024-04-24T16:42:15.474Z,53.73
2024-04-24T16:44:42.022Z,53.45
2024-04-24T16:47:08.628Z,49.59
2024-04-24T16:49:37.581Z,48.79
2024-04-24T16:52:09.097Z,50.34
2024-04-24T16:54:37.603Z,52.18
2024-04-24T16:57:05.187Z,53.41
2024-04-24T16:59:31.846Z,54.84
2024-04-24T17:01:58.691Z,56.07
2024-04-24T17:04:28.403Z,56.66
2024-04-24T17:06:54.952Z,56.71
2024-04-24T17:09:23.060Z,55.99
2024-04-24T17:11:49.685Z,53.87
2024-04-24T17:14:16.546Z,50.97
2024-04-24T17:16:43.126Z,47.46
2024-04-24T17:19:09.787Z,46.26
2024-04-24T17:21:36.462Z,45.31
2024-04-24T17:24:03.604Z,42.94
2024-04-24T17:26:36.555Z,42.30
2024-04-24T17:29:05.282Z,41.76
2024-04-24T17:31:31.845Z,40.39
2024-04-24T17:33:58.436Z,39.97
2024-04-24T17:36:24.957Z,40.20
2024-04-24T17:38:51.857Z,39.92
2024-04-24T17:41:18.391Z,42.96
2024-04-24T17:43:45.012Z,47.17
2024-04-24T17:46:11.552Z,48.41
2024-04-24T17:48:38.270Z,46.71
2024-04-24T17:51:05.252Z,46.06
2024-04-24T17:53:31.997Z,47.16
2024-04-24T17:55:58.677Z,47.83
2024-04-24T17:58:27.035Z,50.88
2024-04-24T18:00:54.439Z,51.88
2024-04-24T18:03:22.044Z,52.19
2024-04-24T18:05:49.156Z,54.12
2024-04-24T18:10:46.290Z,56.96
2024-04-24T18:13:13.067Z,58.46
2024-04-24T18:15:40.394Z,60.16
2024-04-24T18:18:07.359Z,60.63
2024-04-24T18:20:34.523Z,61.93
2024-04-24T18:23:01.239Z,62.86
2024-04-24T18:25:29.363Z,63.61
2024-04-24T18:27:56.036Z,64.41
2024-04-24T18:30:22.852Z,64.79
2024-04-24T18:32:49.659Z,65.45
2024-04-24T18:35:17.666Z,66.09
2024-04-24T18:37:44.357Z,66.22
2024-04-24T18:40:11.565Z,67.97
2024-04-24T18:42:38.453Z,69.04
2024-04-24T18:45:05.176Z,70.85
2024-04-24T18:47:38.031Z,71.35
2024-04-24T18:50:09.704Z,72.10
2024-04-24T18:52:40.058Z,71.63
2024-04-24T18:55:06.857Z,72.16
2024-04-24T18:57:33.852Z,71.43
2024-04-24T19:00:00.738Z,71.99
2024-04-24T19:02:27.800Z,72.38
2024-04-24T19:04:54.397Z,72.80
2024-04-24T19:07:20.937Z,73.11
2024-04-24T19:09:47.668Z,73.53
2024-04-24T19:12:14.179Z,73.43
2024-04-24T19:14:40.918Z,73.64
2024-04-24T19:17:07.521Z,73.73
2024-04-24T19:19:34.122Z,74.36
2024-04-24T19:22:00.671Z,74.54
2024-04-24T19:24:27.248Z,74.38
2024-04-24T19:26:53.874Z,74.96
2024-04-24T19:29:20.441Z,74.91
2024-04-24T19:31:47.130Z,75.08
2024-04-24T19:34:13.684Z,75.37
2024-04-24T19:36:40.228Z,75.82
2024-04-24T19:39:06.789Z,76.58
2024-04-24T19:41:33.400Z,76.83
2024-04-24T19:44:00.088Z,77.56
2024-04-24T19:46:26.795Z,77.20
2024-04-24T19:48:53.984Z,77.49
2024-04-24T19:51:21.141Z,77.63
2024-04-24T19:53:47.698Z,78.42
2024-04-24T19:56:14.400Z,79.26
2024-04-24T19:58:41.575Z,78.84
2024-04-24T20:01:09.905Z,78.65
2024-04-24T20:03:37.202Z,78.06
2024-04-24T20:06:05.386Z,77.78
2024-04-24T20:08:32.243Z,78.36
2024-04-24T20:11:05.751Z,78.17
2024-04-24T20:13:32.933Z,77.96
2024-04-24T20:16:03.784Z,78.03
2024-04-24T20:18:30.480Z,78.23
2024-04-24T20:20:57.114Z,78.61
2024-04-24T20:23:23.676Z,78.51
2024-04-24T20:25:50.518Z,78.92
2024-04-24T20:28:17.062Z,79.06
2024-04-24T20:30:43.618Z,79.37
2024-04-24T20:33:10.555Z,79.06
2024-04-24T20:35:37.483Z,79.57
2024-04-24T20:38:04.327Z,79.65
2024-04-24T20:40:31.230Z,79.34
2024-04-24T20:42:57.783Z,78.70
2024-04-24T20:45:24.382Z,78.23
2024-04-24T20:47:51.108Z,77.82
2024-04-24T20:50:18.660Z,76.77
2024-04-24T20:52:45.209Z,77.09
2024-04-24T20:55:11.734Z,77.24
2024-04-24T20:57:38.226Z,76.99
2024-04-24T21:00:05.072Z,77.28
2024-04-24T21:02:31.722Z,77.17
2024-04-24T21:04:58.318Z,77.38
2024-04-24T21:07:24.823Z,77.20
2024-04-24T21:09:51.405Z,77.41
2024-04-24T21:12:18.843Z,77.22
2024-04-24T21:14:45.431Z,77.35
2024-04-24T21:17:11.971Z,77.76
2024-04-24T21:19:38.496Z,77.91
2024-04-24T21:22:05.243Z,77.94
2024-04-24T21:24:31.919Z,77.47
2024-04-24T21:26:58.673Z,77.12
2024-04-24T21:29:25.224Z,77.52
2024-04-24T21:31:52.227Z,77.94
2024-04-24T21:34:18.835Z,77.92
2024-04-24T21:36:45.404Z,77.80
2024-04-24T21:39:13.482Z,77.85
2024-04-24T21:41:39.993Z,77.90
2024-04-24T21:44:06.597Z,78.34
2024-04-24T21:46:33.199Z,78.07
2024-04-24T21:48:59.706Z,78.16
2024-04-24T21:51:26.224Z,78.41
2024-04-24T21:53:55.753Z,78.49
2024-04-24T21:56:23.930Z,78.90
2024-04-24T21:58:55.951Z,78.87
2024-04-24T22:01:22.804Z,78.25
2024-04-24T22:03:49.669Z,78.87
2024-04-24T22:06:20.236Z,78.56
2024-04-24T22:08:47.690Z,79.02
2024-04-24T22:11:14.481Z,80.26
2024-04-24T22:13:41.043Z,81.80
2024-04-24T22:16:07.665Z,82.38
2024-04-24T22:18:35.722Z,83.73
2024-04-24T22:21:02.493Z,83.74
2024-04-24T22:23:29.843Z,83.68
2024-04-24T22:25:56.417Z,83.66
2024-04-24T22:28:22.968Z,84.30
2024-04-24T22:30:49.505Z,84.72
2024-04-24T22:33:16.245Z,84.29
2024-04-24T22:35:42.991Z,89.78
2024-04-24T22:38:11.955Z,86.12
2024-04-24T22:40:38.714Z,86.18
2024-04-24T22:43:05.241Z,83.37
2024-04-24T22:45:31.757Z,82.20
2024-04-24T22:47:58.338Z,82.63
2024-04-24T22:50:24.980Z,82.87
2024-04-24T22:52:51.504Z,83.87
2024-04-24T22:55:18.005Z,83.95
2024-04-24T22:57:44.563Z,83.64
2024-04-24T23:00:18.688Z,84.11
2024-04-24T23:02:45.468Z,83.93
2024-04-24T23:05:12.223Z,84.73
2024-04-24T23:07:39.072Z,84.15
2024-04-24T23:10:05.824Z,84.33
2024-04-24T23:12:32.369Z,85.57
2024-04-24T23:14:59.040Z,84.52
2024-04-24T23:17:25.680Z,84.57
2024-04-24T23:19:52.279Z,84.62
2024-04-24T23:22:18.846Z,85.91
2024-04-24T23:24:45.445Z,87.20
2024-04-24T23:27:11.971Z,88.07
2024-04-24T23:29:38.527Z,87.46
2024-04-24T23:32:05.906Z,87.73
2024-04-24T23:34:32.563Z,87.68
2024-04-24T23:36:59.086Z,89.96
2024-04-24T23:39:25.632Z,89.48
2024-04-24T23:41:52.145Z,89.85
2024-04-24T23:44:18.762Z,91.17
2024-04-24T23:46:45.380Z,91.34
2024-04-24T23:49:11.904Z,93.05
2024-04-24T23:51:38.418Z,92.80
2024-04-24T23:54:04.958Z,93.49
2024-04-24T23:56:31.484Z,94.83
2024-04-24T23:58:58.610Z,92.99
